Time;durP1;ratioP1;P1;durP2;ratioP2;P2;SDS_P1;SDS_P2;PMS_P1;PMS_P2;Temp;Humidity;BMP_temperature;BMP_pressure;BME280_temperature;BME280_humidity;BME280_pressure;Samples;Min_cycle;Max_cycle;Signal;HPM_P1;HPM_P2
2022/12/07 00:01:14;;;;;;;3.45;1.85;;;;;;;18.67;39.83;101734.47;5024188;28;20464;-66
2022/12/07 00:03:41;;;;;;;3.90;1.73;;;;;;;18.68;40.05;101730.00;5031541;28;20118;-66
2022/12/07 00:06:09;;;;;;;3.47;1.70;;;;;;;18.65;39.50;101732.88;5030599;28;20033;-66
2022/12/07 00:08:34;;;;;;;4.05;1.85;;;;;;;18.65;39.66;101730.22;5031216;28;20052;-65
2022/12/07 00:11:07;;;;;;;3.17;1.60;;;;;;;18.63;39.70;101732.97;5035226;28;20501;-65
2022/12/07 00:13:34;;;;;;;3.60;1.60;;;;;;;18.62;39.50;101719.88;5029162;28;20044;-66
2022/12/07 00:16:06;;;;;;;4.05;1.60;;;;;;;18.61;39.33;101728.75;5034664;28;20033;-66
2022/12/07 00:18:31;;;;;;;4.43;1.67;;;;;;;18.59;39.53;101728.00;5028084;28;20069;-66
2022/12/07 00:21:06;;;;;;;2.85;1.38;;;;;;;18.58;39.38;101719.25;5035408;28;20117;-67
2022/12/07 00:23:32;;;;;;;4.45;1.60;;;;;;;18.57;39.38;101714.06;5031008;28;20120;-66
2022/12/07 00:26:04;;;;;;;3.05;1.67;;;;;;;18.55;39.36;101716.81;5035034;28;20049;-67
2022/12/07 00:28:29;;;;;;;3.55;1.70;;;;;;;18.52;39.38;101705.59;5027416;28;20072;-65
2022/12/07 00:31:00;;;;;;;3.47;1.63;;;;;;;18.54;39.38;101709.84;5024535;28;20073;-66
2022/12/07 00:33:28;;;;;;;3.35;1.75;;;;;;;18.52;39.31;101709.13;5026217;28;20266;-65
2022/12/07 00:35:57;;;;;;;4.25;1.80;;;;;;;18.53;39.35;101709.94;5031290;28;20061;-66
2022/12/07 00:38:22;;;;;;;3.80;1.75;;;;;;;18.51;39.39;101704.78;5039769;28;20076;-69
2022/12/07 00:41:06;;;;;;;3.67;1.65;;;;;;;18.50;39.40;101708.38;5029785;28;20060;-67
2022/12/07 00:43:32;;;;;;;3.50;1.70;;;;;;;18.48;39.00;101702.34;5038640;28;20091;-65
2022/12/07 00:45:58;;;;;;;2.70;1.50;;;;;;;18.48;38.93;101710.25;5036735;28;20041;-66
2022/12/07 00:48:23;;;;;;;2.85;1.40;;;;;;;18.46;39.25;101709.53;5021450;28;20033;-66
2022/12/07 00:50:49;;;;;;;3.67;1.55;;;;;;;18.46;39.12;101714.81;5036524;28;20032;-66
2022/12/07 00:53:15;;;;;;;3.40;1.67;;;;;;;18.44;39.24;101708.81;5030521;28;21157;-65
2022/12/07 00:55:40;;;;;;;3.33;1.50;;;;;;;18.42;39.43;101711.56;5011598;28;20770;-64
2022/12/07 00:58:06;;;;;;;3.42;1.60;;;;;;;18.45;38.98;101710.47;5037796;28;20059;-68
2022/12/07 01:00:31;;;;;;;3.83;1.60;;;;;;;18.40;39.05;101707.31;5022857;28;20075;-66
2022/12/07 01:02:57;;;;;;;3.72;1.60;;;;;;;18.42;38.93;101708.91;5036394;28;20501;-65
2022/12/07 01:05:22;;;;;;;4.57;1.60;;;;;;;18.40;39.22;101710.78;5013550;28;20041;-66
2022/12/07 01:07:47;;;;;;;3.08;1.40;;;;;;;18.40;39.07;101709.94;5025606;28;20044;-66
2022/12/07 01:10:14;;;;;;;3.83;1.60;;;;;;;18.40;39.09;101707.31;5040974;28;20032;-66
2022/12/07 01:12:39;;;;;;;2.95;1.40;;;;;;;18.37;39.03;101705.72;5041117;28;20369;-65
2022/12/07 01:15:06;;;;;;;2.92;1.50;;;;;;;18.39;39.08;101708.25;5020869;28;20500;-66
2022/12/07 01:17:31;;;;;;;2.63;1.35;;;;;;;18.38;38.94;101704.78;5022348;28;20132;-66
2022/12/07 01:19:56;;;;;;;3.03;1.60;;;;;;;18.35;38.85;101702.34;5040682;28;20111;-66
2022/12/07 01:22:21;;;;;;;3.35;1.50;;;;;;;18.37;38.76;101711.00;5030418;28;20051;-66
2022/12/07 01:24:47;;;;;;;3.40;1.30;;;;;;;18.34;38.99;101702.44;5033296;28;20059;-67
2022/12/07 01:27:13;;;;;;;3.47;1.52;;;;;;;18.36;38.99;101706.69;5024827;28;20061;-66
2022/12/07 01:29:38;;;;;;;3.60;1.77;;;;;;;18.35;38.77;101705.00;5044740;28;20033;-68
2022/12/07 01:32:04;;;;;;;3.83;1.60;;;;;;;18.33;38.72;101708.69;5034839;28;20029;-64
2022/12/07 01:34:29;;;;;;;3.72;1.85;;;;;;;18.33;38.58;101706.91;5035631;28;20039;-67
2022/12/07 01:36:54;;;;;;;3.20;1.38;;;;;;;18.32;38.94;101705.19;5043443;28;20099;-65
2022/12/07 01:39:20;;;;;;;2.78;1.25;;;;;;;18.31;38.78;101704.38;5032933;28;21203;-65
2022/12/07 01:41:46;;;;;;;3.20;1.30;;;;;;;18.30;38.85;101713.22;5042394;28;20490;-64
2022/12/07 01:44:31;;;;;;;3.53;1.60;;;;;;;18.29;38.92;101708.03;5039428;28;20043;-65
2022/12/07 01:46:57;;;;;;;;;;;;;;;18.35;38.79;101717.34;5026999;28;20035;-65
2022/12/07 01:49:28;;;;;;;3.72;1.50;;;;;;;18.29;38.65;101716.81;5025302;28;19920;-66
2022/12/07 01:52:06;;;;;;;3.05;1.38;;;;;;;18.27;38.70;101716.06;5023954;28;20036;-68
2022/12/07 01:54:32;;;;;;;4.65;1.40;;;;;;;18.28;38.88;101723.03;5038040;28;20033;-68
2022/12/07 01:56:59;;;;;;;2.50;1.42;;;;;;;18.23;38.72;101704.06;5026069;28;20128;-66
2022/12/07 01:59:26;;;;;;;2.65;1.30;;;;;;;18.23;38.82;101698.78;5038357;28;20128;-67
2022/12/07 02:01:52;;;;;;;3.05;1.50;;;;;;;18.24;38.92;101703.06;5027329;28;20642;-66
2022/12/07 02:04:18;;;;;;;2.85;1.15;;;;;;;18.20;38.90;101698.97;5024425;28;20102;-65
2022/12/07 02:06:45;;;;;;;3.38;1.40;;;;;;;18.22;38.54;101694.44;5023902;28;20033;-65
2022/12/07 02:09:12;;;;;;;2.53;1.15;;;;;;;18.22;39.13;101694.44;5032063;28;20043;-68
2022/12/07 02:11:38;;;;;;;3.42;1.52;;;;;;;18.18;38.81;101692.09;5036014;28;20565;-68
2022/12/07 02:14:04;;;;;;;3.95;1.50;;;;;;;18.16;38.94;101694.84;5031641;28;20143;-68
2022/12/07 02:17:01;;;;;;;2.58;1.30;;;;;;;18.21;38.87;101705.91;5035898;28;20094;-64
2022/12/07 02:19:42;;;;;;;3.40;1.52;;;;;;;18.19;38.91;101699.91;5019108;28;20026;-66
2022/12/07 02:22:45;;;;;;;3.42;1.40;;;;;;;18.19;38.70;101689.38;5034820;28;20473;-67
2022/12/07 02:25:32;;;;;;;2.80;1.30;;;;;;;18.19;38.68;101702.56;5022969;28;20033;-66
2022/12/07 02:28:17;;;;;;;3.03;1.40;;;;;;;18.19;38.68;101699.91;5030346;28;20025;-66
2022/12/07 02:30:46;;;;;;;3.13;1.30;;;;;;;18.17;38.81;101695.72;5024469;28;20040;-66
2022/12/07 02:33:17;;;;;;;2.85;1.25;;;;;;;18.09;38.61;101683.88;5031317;28;20040;-67
2022/12/07 02:36:17;;;;;;;3.50;1.38;;;;;;;18.16;38.65;101692.22;5030753;28;20101;-66
2022/12/07 02:38:55;;;;;;;2.67;1.27;;;;;;;18.13;38.47;101685.38;5023661;28;20124;-67
2022/12/07 02:41:29;;;;;;;2.20;1.15;;;;;;;18.14;38.60;101688.84;5035150;28;20910;-67
2022/12/07 02:43:59;;;;;;;3.38;1.30;;;;;;;18.13;38.36;101692.41;5043382;28;20025;-66
2022/12/07 02:46:40;;;;;;;3.67;1.38;;;;;;;18.10;38.81;101688.22;5023049;28;20040;-65
2022/12/07 02:51:52;;;;;;;4.15;1.38;;;;;;;18.11;38.63;101689.03;5032246;28;20048;-64
2022/12/07 02:54:19;;;;;;;2.75;1.10;;;;;;;18.09;38.82;101697.06;5025730;28;20036;-66
2022/12/07 02:56:50;;;;;;;2.92;1.50;;;;;;;18.09;38.36;101696.22;5028118;28;20033;-65
2022/12/07 02:59:29;;;;;;;2.63;1.20;;;;;;;18.06;38.73;101686.72;5039959;28;20033;-67
2022/12/07 03:02:03;;;;;;;3.10;1.10;;;;;;;18.08;38.51;101695.34;5028177;28;20064;-65
2022/12/07 03:04:36;;;;;;;2.95;1.25;;;;;;;18.07;38.84;101696.31;5038501;28;20036;-64
2022/12/07 03:07:32;;;;;;;2.67;1.10;;;;;;;18.07;38.46;101701.59;5037504;28;20033;-67
2022/12/07 03:10:03;;;;;;;2.97;1.20;;;;;;;18.06;38.52;101696.44;5033715;28;20033;-67
2022/12/07 03:12:40;;;;;;;2.97;1.35;;;;;;;18.05;38.42;101694.72;5033183;28;20033;-66
2022/12/07 03:15:14;;;;;;;3.78;1.30;;;;;;;18.04;38.24;101700.94;5026842;28;20745;-63
2022/12/07 03:17:43;;;;;;;2.47;1.20;;;;;;;18.02;38.66;101687.84;5025539;28;20043;-65
2022/12/07 03:20:13;;;;;;;3.20;1.40;;;;;;;18.02;38.52;101692.28;5042958;28;20039;-64
2022/12/07 03:22:41;;;;;;;3.22;1.23;;;;;;;18.02;38.52;101697.56;5043182;28;20112;-65
2022/12/07 03:25:13;;;;;;;2.50;1.00;;;;;;;17.99;38.29;101690.72;5031615;28;20998;-65
2022/12/07 03:27:44;;;;;;;3.67;1.25;;;;;;;17.98;38.61;101683.75;5042450;28;20473;-65
2022/12/07 03:30:14;;;;;;;2.67;1.08;;;;;;;18.02;38.38;101681.75;5037373;28;20051;-67
2022/12/07 03:32:45;;;;;;;2.55;1.00;;;;;;;18.00;38.67;101681.84;5037246;28;20044;-68
2022/12/07 03:35:25;;;;;;;3.65;1.08;;;;;;;18.00;38.47;101681.00;5033895;28;20084;-67
2022/12/07 03:38:22;;;;;;;3.30;1.20;;;;;;;17.98;38.61;101686.41;5022727;28;20068;-68
2022/12/07 03:40:54;;;;;;;2.65;1.08;;;;;;;17.96;38.27;101680.38;4984480;28;20041;-66
2022/12/07 03:43:20;;;;;;;2.97;1.23;;;;;;;17.95;38.58;101683.97;5024261;28;20080;-68
2022/12/07 03:46:24;;;;;;;2.40;0.90;;;;;;;17.97;38.28;101689.97;5041998;28;20457;-66
2022/12/07 03:48:58;;;;;;;2.13;1.00;;;;;;;17.95;38.36;101681.31;5041250;28;20041;-65
2022/12/07 03:51:58;;;;;;;2.97;1.02;;;;;;;17.97;38.17;101684.69;5032281;28;20036;-67
2022/12/07 03:54:36;;;;;;;2.55;1.10;;;;;;;17.93;38.32;101683.22;5024194;28;20398;-66
2022/12/07 03:57:04;;;;;;;2.85;1.10;;;;;;;17.92;38.28;101685.00;5035422;28;20476;-65
2022/12/07 03:59:30;;;;;;;3.13;1.10;;;;;;;17.95;38.32;101694.50;5029160;28;20053;-66
2022/12/07 04:02:01;;;;;;;2.83;1.17;;;;;;;17.93;38.52;101699.88;5028978;28;20448;-65
2022/12/07 04:04:26;;;;;;;3.72;1.30;;;;;;;17.91;38.39;101691.25;5033196;28;20389;-66
2022/12/07 04:06:52;;;;;;;2.63;1.00;;;;;;;17.90;38.32;101679.00;5031665;28;20033;-66
2022/12/07 04:09:17;;;;;;;2.22;1.10;;;;;;;17.92;38.34;101685.00;5031468;28;20040;-66
2022/12/07 04:11:42;;;;;;;2.40;1.17;;;;;;;17.90;38.44;101673.72;5037973;28;20143;-65
2022/12/07 04:14:20;;;;;;;2.25;1.00;;;;;;;17.92;38.42;101681.53;5023839;28;20043;-64
2022/12/07 04:16:56;;;;;;;2.97;1.05;;;;;;;17.88;38.39;101680.03;5018824;28;20029;-66
2022/12/07 04:19:30;;;;;;;3.20;1.20;;;;;;;17.88;38.13;101683.53;5041169;28;20048;-68
2022/12/07 04:21:57;;;;;;;2.67;1.08;;;;;;;17.90;38.37;101692.19;5040239;28;20393;-67
2022/12/07 04:24:23;;;;;;;2.40;0.90;;;;;;;17.91;38.26;101685.09;5025398;28;20103;-66
2022/12/07 04:26:49;;;;;;;2.83;1.10;;;;;;;17.89;38.25;101685.19;5026930;28;20470;-66
2022/12/07 04:29:16;;;;;;;2.67;1.00;;;;;;;17.88;38.28;101680.91;5025607;28;20440;-64
2022/12/07 04:31:42;;;;;;;4.85;1.00;;;;;;;17.88;38.39;101672.13;5021835;28;20033;-66
2022/12/07 04:34:07;;;;;;;2.70;1.10;;;;;;;17.88;38.47;101677.41;5037895;28;20367;-65
2022/12/07 04:36:34;;;;;;;2.40;0.90;;;;;;;17.88;38.38;101674.75;5011840;28;20053;-66
2022/12/07 04:39:00;;;;;;;3.58;1.60;;;;;;;17.85;38.53;101667.00;5041245;28;20044;-65
2022/12/07 04:41:29;;;;;;;3.03;1.02;;;;;;;17.85;38.22;101665.25;5041447;28;20025;-66
2022/12/07 04:43:56;;;;;;;4.18;1.17;;;;;;;17.84;38.56;101663.53;5026141;28;20029;-67
2022/12/07 04:46:23;;;;;;;2.58;0.98;;;;;;;17.84;38.44;101666.19;5021362;28;20033;-67
2022/12/07 04:48:50;;;;;;;3.20;1.20;;;;;;;17.87;38.62;101670.41;5026797;28;20029;-68
2022/12/07 04:51:21;;;;;;;2.05;1.00;;;;;;;17.83;38.41;101668.91;5021080;28;20048;-66
2022/12/07 04:53:46;;;;;;;2.47;1.00;;;;;;;17.86;38.41;101674.00;5020936;28;20065;-65
2022/12/07 04:56:11;;;;;;;3.03;1.00;;;;;;;17.85;38.44;101675.78;5025580;28;20061;-67
2022/12/07 04:58:37;;;;;;;2.30;1.00;;;;;;;17.85;38.56;101674.94;5032635;28;20109;-67
2022/12/07 05:01:02;;;;;;;3.95;1.13;;;;;;;17.85;38.56;101669.66;5028354;28;20082;-65
2022/12/07 05:03:27;;;;;;;2.50;1.00;;;;;;;17.84;38.21;101668.81;5030684;28;20036;-66
2022/12/07 05:05:52;;;;;;;2.30;0.90;;;;;;;17.82;38.43;101657.53;5020885;28;20127;-65
2022/12/07 05:08:18;;;;;;;3.83;1.20;;;;;;;17.82;38.63;101657.53;5029132;28;20274;-65
2022/12/07 05:10:43;;;;;;;2.38;1.10;;;;;;;17.82;38.55;101656.72;5036366;28;20629;-68
2022/12/07 05:13:08;;;;;;;2.63;1.00;;;;;;;17.84;38.42;101665.34;5032525;28;20611;-66
2022/12/07 05:15:33;;;;;;;2.37;1.00;;;;;;;17.83;38.41;101661.88;5034145;28;20045;-66
2022/12/07 05:17:59;;;;;;;3.05;1.30;;;;;;;17.82;38.40;101647.00;5040294;28;20285;-68
2022/12/07 05:20:24;;;;;;;3.28;1.00;;;;;;;17.80;38.62;101654.16;5026386;28;20033;-66
2022/12/07 05:22:49;;;;;;;3.55;1.00;;;;;;;17.80;38.67;101651.53;5032463;28;20244;-68
2022/12/07 05:25:15;;;;;;;2.42;1.00;;;;;;;17.79;38.31;101651.63;5040574;28;20036;-65
2022/12/07 05:27:40;;;;;;;3.38;1.20;;;;;;;17.81;38.58;101660.28;5032637;28;20467;-65
2022/12/07 05:30:06;;;;;;;2.22;1.02;;;;;;;17.79;38.66;101655.09;5029644;28;20025;-68
2022/12/07 05:32:31;;;;;;;2.08;1.00;;;;;;;17.77;38.72;101654.38;5030937;28;20033;-66
2022/12/07 05:34:56;;;;;;;2.05;0.88;;;;;;;17.81;38.64;101660.28;5020793;28;20055;-66
2022/12/07 05:37:22;;;;;;;2.20;0.88;;;;;;;17.79;38.68;101655.09;5022811;28;20845;-65
2022/12/07 05:39:47;;;;;;;2.28;0.90;;;;;;;17.79;38.64;101656.91;5021953;28;20044;-65
2022/12/07 05:42:12;;;;;;;2.22;0.90;;;;;;;17.78;38.49;101656.03;5035094;28;20863;-66
2022/12/07 05:44:46;;;;;;;3.25;1.00;;;;;;;17.77;38.67;101649.94;5039367;28;20037;-68
2022/12/07 05:47:14;;;;;;;2.08;0.80;;;;;;;17.77;38.74;101644.66;5023120;28;20038;-66
2022/12/07 05:49:40;;;;;;;2.10;0.90;;;;;;;17.79;38.44;101649.00;5037206;28;20041;-67
2022/12/07 05:52:05;;;;;;;3.85;1.10;;;;;;;17.82;38.52;101648.78;5040234;28;20052;-66
2022/12/07 05:54:31;;;;;;;2.33;0.90;;;;;;;17.83;39.09;101651.31;5028951;28;20037;-66
2022/12/07 05:56:56;;;;;;;2.50;0.90;;;;;;;17.85;38.88;101640.66;5040061;28;20032;-69
2022/12/07 05:59:24;;;;;;;2.75;0.80;;;;;;;17.90;38.80;101644.72;5030772;28;20378;-66
2022/12/07 06:01:50;;;;;;;2.22;0.70;;;;;;;17.95;38.87;101644.41;5032166;28;20179;-66
2022/12/07 06:04:17;;;;;;;1.67;0.70;;;;;;;17.94;39.13;101638.28;5041609;28;20033;-66
2022/12/07 06:06:42;;;;;;;2.47;0.80;;;;;;;18.02;39.08;101645.66;5033707;28;20903;-67
2022/12/07 06:09:07;;;;;;;3.00;1.00;;;;;;;18.02;38.96;101650.09;5025060;28;20949;-67
2022/12/07 06:14:16;;;;;;;1.80;0.75;;;;;;;18.11;38.69;101658.22;5031747;28;20059;-66
2022/12/07 06:16:42;;;;;;;1.90;0.70;;;;;;;18.11;38.47;101647.66;5035545;28;20440;-67
2022/12/07 06:19:07;;;;;;;2.25;0.70;;;;;;;18.15;38.62;101655.38;5031106;28;20030;-68
2022/12/07 06:21:32;;;;;;;2.08;0.80;;;;;;;18.19;38.66;101667.41;5024696;28;20076;-65
2022/12/07 06:23:58;;;;;;;1.70;0.55;;;;;;;18.20;38.65;101658.53;5029062;28;20040;-67
2022/12/07 06:26:23;;;;;;;2.53;0.77;;;;;;;18.21;38.65;101661.06;5027527;28;20029;-65
2022/12/07 06:28:48;;;;;;;1.88;0.75;;;;;;;18.22;38.91;101649.56;5021280;28;20033;-69
2022/12/07 06:31:14;;;;;;;2.28;0.82;;;;;;;18.25;38.74;101651.16;5033423;28;20355;-65
2022/12/07 06:33:40;;;;;;;1.23;0.60;;;;;;;18.26;38.53;101655.47;5037021;28;20140;-67
2022/12/07 06:36:05;;;;;;;2.45;0.70;;;;;;;18.24;38.69;101655.59;5032178;28;20052;-68
2022/12/07 06:38:30;;;;;;;1.65;0.60;;;;;;;18.25;38.41;101646.72;5031239;28;20041;-67
2022/12/07 06:40:56;;;;;;;1.92;0.70;;;;;;;18.27;38.67;101658.00;5014170;28;20541;-66
2022/12/07 06:43:21;;;;;;;3.22;0.90;;;;;;;18.29;38.54;101657.91;5029785;28;20033;-67
2022/12/07 06:45:46;;;;;;;2.42;0.93;;;;;;;18.33;38.53;101654.13;5030579;28;20108;-65
2022/12/07 06:48:12;;;;;;;2.05;0.80;;;;;;;18.34;38.44;101663.75;5032423;28;20361;-66
2022/12/07 06:50:37;;;;;;;2.85;0.70;;;;;;;18.38;38.65;101664.34;5043217;28;20052;-65
2022/12/07 06:53:02;;;;;;;1.35;0.60;;;;;;;18.37;38.47;101663.50;5043299;28;20037;-69
2022/12/07 06:55:27;;;;;;;3.30;0.80;;;;;;;18.41;38.59;101661.50;5032562;28;20065;-66
2022/12/07 06:57:53;;;;;;;3.20;0.80;;;;;;;18.38;38.63;101646.72;5023618;28;20477;-67
2022/12/07 07:00:18;;;;;;;2.28;0.70;;;;;;;18.42;38.51;101653.47;5023975;28;20266;-67
2022/12/07 07:02:44;;;;;;;2.55;0.70;;;;;;;18.44;38.27;101653.38;5041996;28;20104;-67
2022/12/07 07:05:09;;;;;;;2.58;0.80;;;;;;;18.44;38.29;101648.94;5042976;28;20032;-65
2022/12/07 07:07:34;;;;;;;2.20;0.70;;;;;;;18.48;38.19;101660.13;5025004;28;20033;-68
2022/12/07 07:09:59;;;;;;;3.45;1.08;;;;;;;18.45;38.56;101655.91;5029411;28;20221;-69
2022/12/07 07:12:25;;;;;;;2.15;0.90;;;;;;;18.45;38.73;101653.28;5023066;28;20493;-67
2022/12/07 07:14:50;;;;;;;2.47;0.77;;;;;;;18.49;38.86;101662.66;5039773;28;20036;-67
2022/12/07 07:17:15;;;;;;;2.85;0.90;;;;;;;18.50;39.11;101666.16;5034946;28;20142;-68
2022/12/07 07:19:41;;;;;;;2.42;0.70;;;;;;;18.50;39.12;101660.88;5025495;28;20079;-68
2022/12/07 07:22:06;;;;;;;1.67;0.70;;;;;;;18.52;39.02;101663.38;5042584;28;20077;-67
2022/12/07 07:24:31;;;;;;;2.78;0.77;;;;;;;18.53;39.17;101663.28;5042654;28;20485;-66
2022/12/07 07:26:57;;;;;;;2.83;0.85;;;;;;;18.56;39.38;101668.34;5028873;28;20033;-65
2022/12/07 07:29:22;;;;;;;2.13;0.70;;;;;;;18.56;39.17;101670.97;5025796;28;20388;-67
2022/12/07 07:31:47;;;;;;;2.60;0.80;;;;;;;18.57;39.15;101667.41;5032479;28;20315;-67
2022/12/07 07:34:12;;;;;;;2.50;0.80;;;;;;;18.56;39.23;101657.78;5030143;28;20037;-66
2022/12/07 07:36:38;;;;;;;2.63;0.77;;;;;;;18.59;39.00;101667.28;5040045;28;20057;-68
2022/12/07 07:39:03;;;;;;;2.80;0.87;;;;;;;18.62;39.34;101670.53;5040290;28;20036;-66
2022/12/07 07:41:28;;;;;;;2.42;0.80;;;;;;;18.62;39.39;101670.53;5029879;28;20292;-70
2022/12/07 07:43:54;;;;;;;2.17;0.90;;;;;;;18.62;38.99;101672.34;5033378;28;20107;-66
2022/12/07 07:46:19;;;;;;;3.25;0.73;;;;;;;18.63;39.43;101671.41;5034862;28;20028;-68
2022/12/07 07:48:44;;;;;;;2.25;0.70;;;;;;;18.64;39.50;101676.59;5042190;28;20029;-66
2022/12/07 07:51:10;;;;;;;3.13;0.68;;;;;;;18.64;39.69;101676.59;5022303;28;20037;-67
2022/12/07 07:53:35;;;;;;;3.20;0.82;;;;;;;18.66;39.71;101673.84;5031970;28;20083;-67
2022/12/07 07:56:00;;;;;;;2.70;0.90;;;;;;;18.70;39.83;101671.81;5032908;28;20041;-67
2022/12/07 07:58:25;;;;;;;3.22;0.93;;;;;;;18.71;39.98;101679.63;5022158;28;20036;-66
2022/12/07 08:00:51;;;;;;;2.65;0.80;;;;;;;18.72;39.89;101673.38;5022467;28;20117;-66
2022/12/07 08:03:17;;;;;;;2.78;0.70;;;;;;;18.74;40.00;101670.63;5038313;28;20067;-67
2022/12/07 08:05:42;;;;;;;4.97;0.82;;;;;;;18.74;40.06;101671.50;5025853;28;20033;-65
2022/12/07 08:08:07;;;;;;;5.00;1.23;;;;;;;18.75;40.03;101678.44;5022170;28;20086;-68
2022/12/07 08:10:34;;;;;;;2.97;0.93;;;;;;;18.74;40.01;101679.41;5022203;28;20045;-68
2022/12/07 08:13:13;;;;;;;1.88;0.75;;;;;;;18.74;39.34;101676.78;5028001;28;20060;-69
2022/12/07 08:15:40;;;;;;;5.55;1.30;;;;;;;18.72;38.86;101677.81;5037228;28;20029;-66
2022/12/07 08:18:06;;;;;;;5.68;1.17;;;;;;;18.75;39.19;101683.72;5041722;28;20071;-67
2022/12/07 08:20:32;;;;;;;3.33;0.80;;;;;;;18.78;39.45;101685.31;5029720;28;20456;-66
2022/12/07 08:22:58;;;;;;;5.53;1.40;;;;;;;18.76;39.66;101685.44;5036623;28;20115;-68
2022/12/07 08:25:23;;;;;;;4.80;1.00;;;;;;;18.81;39.76;101698.31;5041766;28;20115;-67
2022/12/07 08:27:50;;;;;;;4.97;1.25;;;;;;;18.85;39.84;101694.53;5035714;28;20112;-68
2022/12/07 08:30:15;;;;;;;5.22;1.15;;;;;;;18.85;40.08;101687.44;5021676;28;20112;-66
2022/12/07 08:32:41;;;;;;;5.47;1.08;;;;;;;18.88;40.19;101698.75;5021676;28;20144;-67
2022/12/07 08:35:07;;;;;;;6.45;1.30;;;;;;;18.91;40.17;101698.53;5037903;28;20136;-67
2022/12/07 08:37:33;;;;;;;6.95;1.25;;;;;;;18.92;40.62;101716.91;5033576;28;21393;-67
2022/12/07 08:39:58;;;;;;;4.82;1.10;;;;;;;18.90;40.40;101702.09;5021915;28;20075;-68
2022/12/07 08:42:27;;;;;;;6.97;1.35;;;;;;;18.92;40.55;101700.22;5029370;28;20029;-66
2022/12/07 08:44:53;;;;;;;4.20;0.90;;;;;;;18.95;41.02;101710.56;5031860;28;20038;-67
2022/12/07 08:47:18;;;;;;;4.15;1.10;;;;;;;18.98;41.10;101715.66;5027271;28;20057;-67
2022/12/07 08:49:48;;;;;;;4.57;0.90;;;;;;;18.99;41.33;101704.09;5022608;28;20029;-68
2022/12/07 08:52:14;;;;;;;7.53;1.20;;;;;;;18.99;41.08;101706.75;5038109;28;20025;-67
2022/12/07 08:54:40;;;;;;;5.60;0.93;;;;;;;18.99;41.53;101704.09;5041029;28;20397;-67
2022/12/07 08:57:07;;;;;;;5.88;1.50;;;;;;;19.02;41.64;101704.72;5027815;28;20033;-66
2022/12/07 08:59:35;;;;;;;9.10;1.13;;;;;;;19.03;41.73;101700.31;5021221;28;20033;-65
2022/12/07 09:02:01;;;;;;;8.30;1.20;;;;;;;19.02;41.89;101693.31;5030733;28;20034;-65
2022/12/07 09:04:27;;;;;;;6.03;1.17;;;;;;;19.04;41.40;101696.69;5020760;28;20080;-72
2022/12/07 09:06:54;;;;;;;8.75;1.20;;;;;;;19.06;41.40;101694.81;5025699;28;20140;-69
2022/12/07 09:09:19;;;;;;;5.22;1.08;;;;;;;19.08;41.48;101692.88;5020198;28;20171;-67
2022/12/07 09:11:45;;;;;;;6.43;1.10;;;;;;;19.07;41.58;101693.81;5022091;28;20029;-65
2022/12/07 09:14:12;;;;;;;10.32;1.52;;;;;;;19.06;41.56;101692.16;5028069;28;20124;-73
2022/12/07 09:16:37;;;;;;;6.18;1.10;;;;;;;18.99;41.58;101678.56;5018743;28;20029;-71
2022/12/07 09:19:02;;;;;;;7.07;1.30;;;;;;;19.09;41.54;101688.44;5017314;28;20037;-70
2022/12/07 09:21:28;;;;;;;6.70;1.38;;;;;;;19.05;41.97;101690.47;5015402;28;20108;-69
2022/12/07 09:23:53;;;;;;;4.75;1.00;;;;;;;19.09;41.83;101685.78;5027455;28;20033;-68
2022/12/07 09:26:18;;;;;;;5.80;1.20;;;;;;;19.11;41.71;101695.31;5012520;28;20029;-67
2022/12/07 09:28:44;;;;;;;5.32;1.20;;;;;;;19.10;41.86;101688.31;5030562;28;20035;-66
2022/12/07 09:31:09;;;;;;;6.20;1.00;;;;;;;19.09;41.88;101681.38;5018031;28;20039;-67
2022/12/07 09:33:34;;;;;;;6.13;1.00;;;;;;;19.13;41.97;101690.75;5002917;28;20030;-68
2022/12/07 09:36:00;;;;;;;3.85;1.00;;;;;;;19.11;42.00;101687.38;5014664;28;20049;-72
2022/12/07 09:38:26;;;;;;;6.15;1.10;;;;;;;19.16;42.02;101695.81;5019884;28;20034;-68
2022/12/07 09:40:54;;;;;;;5.68;1.30;;;;;;;19.16;41.91;101698.44;5019209;28;20040;-69
2022/12/07 09:43:22;;;;;;;6.90;1.33;;;;;;;19.16;42.02;101700.25;5025911;28;20060;-71
2022/12/07 09:45:53;;;;;;;7.75;1.05;;;;;;;19.12;42.33;101694.34;5027912;28;20136;-68
2022/12/07 09:48:36;;;;;;;5.88;1.08;;;;;;;19.17;42.42;101692.22;5023897;28;20028;-71
2022/12/07 09:51:03;;;;;;;5.90;1.55;;;;;;;19.18;42.58;101691.28;5028088;28;20036;-69
2022/12/07 09:53:32;;;;;;;5.45;1.35;;;;;;;19.18;42.46;101693.91;5024473;28;20095;-69
2022/12/07 09:55:57;;;;;;;4.10;0.88;;;;;;;19.21;42.49;101700.75;5033802;28;20025;-67
2022/12/07 09:58:29;;;;;;;12.68;1.67;;;;;;;19.16;42.59;101692.34;5031891;28;20025;-67
2022/12/07 10:01:05;;;;;;;7.47;1.30;;;;;;;19.17;42.84;101686.09;5026468;28;20839;-66
2022/12/07 10:03:31;;;;;;;5.93;1.13;;;;;;;19.15;42.72;101688.84;5025927;28;20397;-68
2022/12/07 10:05:57;;;;;;;4.93;1.25;;;;;;;19.18;42.75;101691.28;5032882;28;20032;-73
2022/12/07 10:08:24;;;;;;;8.38;1.02;;;;;;;19.19;42.68;101692.94;5032328;28;20116;-69
2022/12/07 10:10:57;;;;;;;6.85;1.20;;;;;;;19.14;42.67;101681.88;5039939;28;20029;-71
2022/12/07 10:13:36;;;;;;;6.40;1.08;;;;;;;19.13;42.79;101677.53;5032975;28;20079;-66
2022/12/07 10:16:03;;;;;;;7.13;1.30;;;;;;;19.13;42.94;101668.78;5024038;28;20076;-70
2022/12/07 10:18:32;;;;;;;5.80;1.40;;;;;;;19.12;42.89;101673.22;5031493;28;20033;-65
2022/12/07 10:21:13;;;;;;;7.00;1.33;;;;;;;19.13;42.97;101679.34;5024251;28;20086;-70
2022/12/07 10:23:41;;;;;;;9.82;1.30;;;;;;;19.11;42.87;101670.69;5035500;28;20040;-70
2022/12/07 10:26:44;;;;;;;10.68;1.35;;;;;;;19.12;43.17;101667.94;5029066;28;20398;-66
2022/12/07 10:29:17;;;;;;;6.00;1.10;;;;;;;19.06;42.92;101662.22;5031578;28;20033;-66
2022/12/07 10:31:44;;;;;;;8.13;1.63;;;;;;;19.08;43.13;101668.28;5042459;28;20362;-68
2022/12/07 10:34:32;;;;;;;13.27;1.73;;;;;;;19.07;43.08;101656.00;5034436;28;20037;-69
2022/12/07 10:37:13;;;;;;;5.63;1.25;;;;;;;19.03;42.66;101650.09;5043731;28;20091;-68
2022/12/07 10:39:41;;;;;;;6.90;1.27;;;;;;;19.02;42.32;101646.59;5031303;28;20037;-68
2022/12/07 10:42:21;;;;;;;6.63;1.33;;;;;;;19.00;42.60;101650.31;5020478;28;20103;-68
2022/12/07 10:44:48;;;;;;;10.65;1.30;;;;;;;18.95;42.50;101644.53;5043678;28;20028;-69
2022/12/07 10:47:23;;;;;;;9.77;1.30;;;;;;;18.97;41.79;101650.53;5035861;28;20029;-68
2022/12/07 10:49:48;;;;;;;;;;;;;;;19.02;41.84;101645.75;5032177;28;20037;-73
2022/12/07 10:52:26;;;;;;;7.00;1.37;;;;;;;18.95;41.56;101644.53;5038677;28;19919;-72
2022/12/07 10:55:17;;;;;;;4.65;1.08;;;;;;;18.94;41.38;101643.69;5023634;28;20048;-73
2022/12/07 10:57:42;;;;;;;4.05;1.00;;;;;;;18.95;41.74;101645.38;5033655;28;20091;-71
2022/12/07 11:00:19;;;;;;;7.97;1.20;;;;;;;18.97;41.94;101638.19;5029931;28;20037;-69
2022/12/07 11:03:12;;;;;;;4.80;1.10;;;;;;;18.97;42.15;101634.69;5023757;28;20263;-70
2022/12/07 11:06:22;;;;;;;9.20;1.45;;;;;;;18.98;42.05;101628.47;5032931;28;20063;-73
2022/12/07 11:09:03;;;;;;;7.50;1.67;;;;;;;18.99;41.99;101630.13;5037082;28;20028;-72
2022/12/07 11:11:42;;;;;;;5.85;1.17;;;;;;;18.98;42.20;101618.75;5024638;28;20060;-74
2022/12/07 11:14:31;;;;;;;7.95;1.38;;;;;;;18.98;42.15;101613.47;5029550;28;20059;-72
2022/12/07 11:17:05;;;;;;;10.63;1.42;;;;;;;18.96;42.29;101610.09;5022902;28;20045;-73
2022/12/07 11:19:55;;;;;;;5.18;1.08;;;;;;;19.01;42.23;101612.41;5028566;28;20132;-69
2022/12/07 11:22:55;;;;;;;6.38;1.00;;;;;;;19.00;42.24;101608.06;5002252;28;20136;-69
2022/12/07 11:25:41;;;;;;;5.03;1.10;;;;;;;19.06;42.44;101598.81;5014743;28;20052;-73
2022/12/07 11:28:24;;;;;;;8.68;1.30;;;;;;;19.07;42.15;101606.63;5007904;28;20136;-72
2022/12/07 11:31:12;;;;;;;8.48;1.52;;;;;;;19.07;42.14;101603.16;5027940;28;20136;-71
2022/12/07 11:33:52;;;;;;;5.90;1.10;;;;;;;19.09;42.52;101601.25;5036238;28;20040;-70
2022/12/07 11:36:33;;;;;;;11.82;1.20;;;;;;;19.11;42.97;101596.72;5029565;28;20444;-70
2022/12/07 11:39:09;;;;;;;4.75;1.10;;;;;;;19.11;43.05;101596.72;5036639;28;20037;-68
2022/12/07 11:41:38;;;;;;;7.50;1.13;;;;;;;19.14;43.14;101584.13;5033254;28;20039;-67